Time;durP1;ratioP1;P1;durP2;ratioP2;P2;SDS_P1;SDS_P2;PMS_P1;PMS_P2;Temp;Humidity;BMP_temperature;BMP_pressure;BME280_temperature;BME280_humidity;BME280_pressure;Samples;Min_cycle;Max_cycle;Signal;HPM_P1;HPM_P2
2021/05/13 00:02:55;;;;;;;3.85;2.72;;;;;;;9.14;100.00;97602.27;3720552;79;43654;-25
2021/05/13 00:08:02;;;;;;;3.10;2.40;;;;;;;9.17;100.00;97612.69;3722702;78;43689;-24
2021/05/13 00:13:09;;;;;;;3.67;2.33;;;;;;;9.01;100.00;97616.22;3718155;78;43433;-24
2021/05/13 00:18:15;;;;;;;4.27;2.33;;;;;;;9.04;100.00;97599.28;3723032;79;43314;-25
2021/05/13 00:23:21;;;;;;;3.72;2.42;;;;;;;9.04;100.00;97599.77;3720124;78;44726;-25
2021/05/13 00:28:27;;;;;;;3.10;2.60;;;;;;;8.97;100.00;97594.76;3720856;79;44472;-25
2021/05/13 00:33:33;;;;;;;4.43;2.23;;;;;;;8.96;100.00;97595.77;3720042;79;43333;-25
2021/05/13 00:38:39;;;;;;;2.77;2.23;;;;;;;8.94;100.00;97590.06;3723287;79;44067;-24
2021/05/13 00:43:44;;;;;;;3.65;2.40;;;;;;;8.96;100.00;97586.36;3721446;78;44077;-24
2021/05/13 00:49:00;;;;;;;2.75;2.40;;;;;;;8.91;100.00;97586.36;3723112;79;43384;-25
2021/05/13 00:53:59;;;;;;;4.00;2.40;;;;;;;8.91;100.00;97585.02;3720135;78;43400;-25
2021/05/13 00:59:07;;;;;;;3.40;2.27;;;;;;;8.89;100.00;97587.55;3659274;80;43385;-23
2021/05/13 01:04:13;;;;;;;3.92;1.80;;;;;;;8.88;100.00;97581.33;3772559;77;43731;-24
2021/05/13 01:09:22;;;;;;;3.55;2.25;;;;;;;8.85;100.00;97585.72;3762325;77;43399;-24
2021/05/13 01:14:31;;;;;;;2.00;1.75;;;;;;;8.86;100.00;97578.00;3762555;77;44039;-24
2021/05/13 01:19:36;;;;;;;3.80;2.37;;;;;;;8.84;100.00;97581.84;3721586;77;44057;-24
2021/05/13 01:24:42;;;;;;;4.03;2.30;;;;;;;8.92;100.00;97572.44;3697702;78;43491;-24
2021/05/13 01:29:49;;;;;;;3.27;2.52;;;;;;;8.90;100.00;97576.63;3700666;80;43342;-24
2021/05/13 01:34:55;;;;;;;2.95;2.42;;;;;;;8.92;100.00;97569.23;3698317;80;44109;-24
2021/05/13 01:40:01;;;;;;;3.75;2.70;;;;;;;8.90;100.00;97565.06;3696554;80;44126;-24
2021/05/13 01:45:09;;;;;;;3.05;2.42;;;;;;;8.92;100.00;97562.52;3698213;78;43393;-25
2021/05/13 01:50:15;;;;;;;4.73;2.40;;;;;;;8.92;100.00;97553.64;3699709;78;43432;-25
2021/05/13 01:55:21;;;;;;;3.87;2.50;;;;;;;8.91;100.00;97549.27;3701253;80;44186;-25
2021/05/13 02:00:28;;;;;;;3.17;2.62;;;;;;;8.94;100.00;97549.77;3696795;78;44200;-25
2021/05/13 02:05:34;;;;;;;4.85;2.47;;;;;;;8.94;100.00;97547.08;3700834;80;43784;-25
2021/05/13 02:10:40;;;;;;;5.17;3.25;;;;;;;8.92;100.00;97539.69;3697964;80;42943;-24
2021/05/13 02:15:45;;;;;;;4.65;3.40;;;;;;;8.83;100.00;97537.19;3699780;79;44635;-24
2021/05/13 02:20:52;;;;;;;4.75;3.40;;;;;;;8.78;100.00;97532.34;3781481;77;44216;-24
2021/05/13 02:25:59;;;;;;;5.27;2.80;;;;;;;8.72;100.00;97533.04;3796275;77;64837;-24
2021/05/13 02:31:05;;;;;;;3.90;2.92;;;;;;;8.64;100.00;97528.00;3795714;76;44106;-24
2021/05/13 02:36:11;;;;;;;3.60;2.80;;;;;;;8.63;100.00;97533.06;3795584;76;44034;-26
2021/05/13 02:41:17;;;;;;;3.83;2.90;;;;;;;8.63;100.00;97520.98;3793791;78;73858;-24
2021/05/13 02:46:24;;;;;;;5.08;2.70;;;;;;;8.61;100.00;97513.59;3791756;77;43178;-24
2021/05/13 02:51:30;;;;;;;2.42;2.02;;;;;;;8.56;100.00;97514.60;3794192;76;44511;-24
2021/05/13 02:56:36;;;;;;;4.43;2.10;;;;;;;8.48;100.00;97507.91;3796936;78;43390;-24
2021/05/13 03:01:42;;;;;;;2.67;1.83;;;;;;;8.46;100.00;97504.53;3795703;76;73186;-24
2021/05/13 03:06:48;;;;;;;2.95;2.27;;;;;;;8.43;100.00;97498.15;3796487;77;44055;-24
2021/05/13 03:11:55;;;;;;;4.33;2.20;;;;;;;8.39;100.00;97498.18;3788977;78;74249;-24
2021/05/13 03:17:01;;;;;;;3.87;2.57;;;;;;;8.43;100.00;97498.15;3796905;77;44065;-24
2021/05/13 03:22:10;;;;;;;4.37;3.30;;;;;;;8.42;100.00;97499.16;3795918;76;44054;-24
2021/05/13 03:27:26;;;;;;;6.77;4.50;;;;;;;8.44;100.00;97495.80;3796507;78;44088;-24
2021/05/13 03:32:22;;;;;;;6.80;5.03;;;;;;;8.52;100.00;97492.30;3792510;76;43353;-24
2021/05/13 03:37:28;;;;;;;7.03;5.77;;;;;;;8.51;100.00;97489.28;3797292;76;43983;-24
2021/05/13 03:42:34;;;;;;;7.87;4.57;;;;;;;8.53;100.00;97498.83;3795365;78;44613;-24
2021/05/13 03:47:40;;;;;;;7.30;4.20;;;;;;;8.48;100.00;97487.78;3796889;78;44074;-24
2021/05/13 03:52:46;;;;;;;5.22;3.67;;;;;;;8.46;100.00;97475.86;3795756;76;44077;-25
2021/05/13 03:57:55;;;;;;;5.60;4.00;;;;;;;8.49;100.00;97482.75;3796432;76;44027;-24
2021/05/13 04:03:00;;;;;;;6.92;4.47;;;;;;;8.48;100.00;97477.05;3794509;78;68957;-27
2021/05/13 04:08:08;;;;;;;8.27;4.87;;;;;;;8.49;100.00;97478.73;3795702;76;44567;-24
2021/05/13 04:13:15;;;;;;;6.55;5.28;;;;;;;8.53;100.00;97473.84;3795237;77;69119;-24
2021/05/13 04:18:22;;;;;;;5.60;3.93;;;;;;;8.58;100.00;97467.47;3791072;77;43682;-25
2021/05/13 04:23:29;;;;;;;6.87;3.60;;;;;;;8.56;100.00;97461.43;3797934;77;43702;-23
2021/05/13 04:28:34;;;;;;;4.72;3.67;;;;;;;8.64;100.00;97466.25;3796880;76;44091;-24
2021/05/13 04:33:40;;;;;;;5.55;3.90;;;;;;;8.72;100.00;97453.83;3797174;78;43328;-24
2021/05/13 04:38:47;;;;;;;5.05;3.40;;;;;;;8.75;100.00;97448.94;3796871;76;43709;-24
2021/05/13 04:43:54;;;;;;;4.62;4.10;;;;;;;8.78;100.00;97449.09;3792177;77;43306;-24
2021/05/13 04:49:16;;;;;;;5.83;4.50;;;;;;;8.83;100.00;97445.39;3796274;78;69178;-24
2021/05/13 04:54:22;;;;;;;7.55;4.75;;;;;;;8.89;100.00;97447.87;3796161;78;42751;-24
2021/05/13 04:59:28;;;;;;;9.58;6.15;;;;;;;8.93;100.00;97442.50;3796210;76;43706;-24
2021/05/13 05:04:34;;;;;;;9.95;6.87;;;;;;;8.99;100.00;97433.73;3796209;78;44051;-23
2021/05/13 05:09:41;;;;;;;9.43;7.37;;;;;;;9.01;100.00;97434.88;3788314;76;44056;-22
2021/05/13 05:14:47;;;;;;;11.47;7.60;;;;;;;9.02;100.00;97428.50;3791748;78;43484;-22
2021/05/13 05:19:55;;;;;;;12.40;8.28;;;;;;;9.05;100.00;97425.47;3803117;77;44055;-23
2021/05/13 05:25:02;;;;;;;11.60;8.35;;;;;;;9.06;100.00;97429.31;3819802;77;43512;-23
2021/05/13 05:30:12;;;;;;;10.50;8.17;;;;;;;9.13;100.00;97421.39;3821751;76;43341;-23
2021/05/13 05:35:19;;;;;;;11.80;8.20;;;;;;;9.15;100.00;97423.91;3822086;77;44007;-22
2021/05/13 05:40:26;;;;;;;12.40;8.58;;;;;;;9.17;100.00;97422.72;3818181;76;44599;-22
2021/05/13 05:45:33;;;;;;;13.63;9.23;;;;;;;9.23;100.00;97417.95;3821402;76;43336;-22
2021/05/13 05:50:41;;;;;;;13.25;8.53;;;;;;;9.30;100.00;97415.92;3821504;77;43764;-22
2021/05/13 05:55:47;;;;;;;12.88;9.28;;;;;;;9.36;100.00;97407.13;3822488;76;43977;-23
2021/05/13 06:00:53;;;;;;;13.17;9.30;;;;;;;9.44;100.00;97411.13;3817863;76;43381;-23
2021/05/13 06:05:59;;;;;;;12.65;9.50;;;;;;;9.47;100.00;97407.23;3825182;76;44104;-23
2021/05/13 06:11:05;;;;;;;12.20;9.30;;;;;;;9.53;100.00;97411.39;3821636;77;44012;-22
2021/05/13 06:16:11;;;;;;;13.60;9.95;;;;;;;9.62;100.00;97400.56;3822685;76;43420;-22
2021/05/13 06:21:17;;;;;;;12.63;9.23;;;;;;;9.71;100.00;97393.60;3821857;76;75379;-23
2021/05/13 06:26:25;;;;;;;11.75;8.75;;;;;;;9.75;100.00;97395.41;3822919;77;44037;-22
2021/05/13 06:31:33;;;;;;;11.63;8.98;;;;;;;9.79;100.00;97398.08;3822117;76;44274;-23
2021/05/13 06:36:40;;;;;;;13.60;9.00;;;;;;;9.91;100.00;97400.33;3822094;76;43695;-23
2021/05/13 06:41:46;;;;;;;11.85;8.83;;;;;;;9.97;100.00;97399.09;3823468;76;43911;-23
2021/05/13 06:46:52;;;;;;;13.17;8.63;;;;;;;9.97;100.00;97402.28;3821740;76;75262;-22
2021/05/13 06:51:59;;;;;;;10.53;7.97;;;;;;;10.01;100.00;97403.59;3823088;76;43690;-22
2021/05/13 06:57:07;;;;;;;11.73;8.23;;;;;;;10.07;100.00;97401.50;3822232;77;43845;-22
2021/05/13 07:02:13;;;;;;;9.80;7.70;;;;;;;10.07;100.00;97404.19;3826771;76;43503;-22
2021/05/13 07:07:22;;;;;;;9.20;7.65;;;;;;;10.11;100.00;97401.99;3823332;76;44090;-23
2021/05/13 07:12:28;;;;;;;10.60;7.00;;;;;;;10.25;100.00;97401.16;3822068;76;44085;-23
2021/05/13 07:17:34;;;;;;;8.90;5.83;;;;;;;10.25;100.00;97410.58;3820012;77;43502;-23
2021/05/13 07:22:41;;;;;;;9.88;6.03;;;;;;;10.26;100.00;97403.34;3822636;76;43324;-23
2021/05/13 07:27:49;;;;;;;11.05;6.95;;;;;;;10.32;100.00;97403.94;3825448;76;43506;-23
2021/05/13 07:32:55;;;;;;;9.28;6.90;;;;;;;10.35;100.00;97404.93;3819074;77;44052;-23
2021/05/13 07:38:01;;;;;;;10.43;7.50;;;;;;;10.33;100.00;97406.96;3822290;77;75321;-23
2021/05/13 07:43:08;;;;;;;10.03;7.05;;;;;;;10.41;100.00;97416.31;3818967;76;43386;-23
2021/05/13 07:48:14;;;;;;;9.75;6.12;;;;;;;10.40;100.00;97417.86;3823819;76;44200;-23
2021/05/13 07:53:21;;;;;;;9.90;6.95;;;;;;;10.43;100.00;97416.98;3823041;76;43678;-23
2021/05/13 07:58:27;;;;;;;9.15;6.85;;;;;;;10.50;100.00;97416.25;3825790;76;43408;-23
2021/05/13 08:03:35;;;;;;;10.87;7.03;;;;;;;10.50;100.00;97421.64;3821050;77;75364;-23
2021/05/13 08:08:40;;;;;;;8.78;6.40;;;;;;;10.63;100.00;97421.83;3822563;77;43329;-23
2021/05/13 08:13:46;;;;;;;8.97;6.37;;;;;;;10.64;100.00;97418.94;3821759;76;69001;-23
2021/05/13 08:18:53;;;;;;;9.38;6.90;;;;;;;10.69;100.00;97418.38;3818239;77;43681;-23
2021/05/13 08:24:00;;;;;;;11.77;7.57;;;;;;;10.79;100.00;97420.79;3804581;76;27905;-23
2021/05/13 08:29:06;;;;;;;10.60;7.63;;;;;;;10.83;100.00;97415.86;3798099;76;44074;-22
2021/05/13 08:34:13;;;;;;;9.08;7.17;;;;;;;10.82;100.00;97419.56;3791467;77;43441;-23
2021/05/13 08:39:19;;;;;;;9.70;7.35;;;;;;;10.87;100.00;97421.20;3798530;77;43312;-23
2021/05/13 08:44:26;;;;;;;12.20;7.35;;;;;;;11.07;100.00;97420.08;3795229;76;75302;-23
2021/05/13 08:49:32;;;;;;;9.17;7.00;;;;;;;11.02;100.00;97421.98;3795020;77;43333;-23
2021/05/13 08:54:39;;;;;;;11.00;8.40;;;;;;;11.26;100.00;97418.64;3796284;76;44065;-23
2021/05/13 08:59:45;;;;;;;9.83;7.83;;;;;;;11.45;100.00;97417.18;3797677;76;44106;-23
2021/05/13 09:04:54;;;;;;;12.37;8.88;;;;;;;11.48;100.00;97411.91;3797583;77;44010;-23
2021/05/13 09:10:03;;;;;;;12.60;8.48;;;;;;;11.56;100.00;97402.36;3797209;78;44080;-23
2021/05/13 09:15:14;;;;;;;12.85;8.90;;;;;;;11.54;100.00;97400.37;3795746;77;43381;-23
2021/05/13 09:20:28;;;;;;;13.88;9.75;;;;;;;11.60;100.00;97398.23;3788795;76;44004;-23
2021/05/13 09:25:36;;;;;;;15.65;10.45;;;;;;;11.55;100.00;97396.12;3812746;77;43350;-23
2021/05/13 09:30:44;;;;;;;14.95;10.13;;;;;;;11.63;100.00;97395.16;3814363;76;43694;-23
2021/05/13 09:35:52;;;;;;;15.03;11.68;;;;;;;11.51;100.00;97389.95;3808809;76;44110;-23
2021/05/13 09:41:00;;;;;;;16.02;10.75;;;;;;;11.49;100.00;97387.47;3810800;77;43596;-23
2021/05/13 09:46:07;;;;;;;16.13;11.80;;;;;;;11.49;100.00;97386.11;3827538;76;43388;-23
2021/05/13 09:51:22;;;;;;;8.73;6.30;;;;;;;11.63;100.00;97387.06;3818017;76;44084;-23
2021/05/13 09:56:30;;;;;;;8.10;6.00;;;;;;;11.47;100.00;97381.92;3823556;77;43402;-23
2021/05/13 10:01:38;;;;;;;9.40;5.25;;;;;;;11.47;100.00;97377.38;3822838;76;44044;-22
2021/05/13 10:06:44;;;;;;;6.87;5.17;;;;;;;11.51;100.00;97380.52;3823831;77;44033;-23
2021/05/13 10:11:52;;;;;;;9.10;5.47;;;;;;;11.47;100.00;97377.38;3824060;77;43658;-23
2021/05/13 10:17:03;;;;;;;5.45;4.65;;;;;;;11.47;100.00;97377.88;3823926;76;43677;-23
2021/05/13 10:22:12;;;;;;;7.05;4.40;;;;;;;11.39;100.00;97373.47;3807180;76;44428;-23
2021/05/13 10:27:21;;;;;;;5.70;5.12;;;;;;;11.45;100.00;97369.98;3787609;78;43393;-23
2021/05/13 10:32:31;;;;;;;6.87;5.00;;;;;;;11.48;100.00;97372.80;3803124;76;43627;-22
2021/05/13 10:37:43;;;;;;;6.40;4.30;;;;;;;11.53;100.00;97366.33;3795756;78;44098;-22
2021/05/13 10:43:05;;;;;;;6.67;4.60;;;;;;;11.45;100.00;97359.73;3798001;76;69086;-22
2021/05/13 10:48:21;;;;;;;8.35;4.17;;;;;;;11.58;100.00;97354.45;3798163;77;44071;-23
2021/05/13 10:53:45;;;;;;;6.15;4.83;;;;;;;11.60;100.00;97353.72;3799096;76;43447;-22
2021/05/13 10:59:00;;;;;;;6.90;5.80;;;;;;;11.58;100.00;97347.71;3798039;78;44043;-23
2021/05/13 11:04:42;;;;;;;9.40;5.65;;;;;;;11.69;100.00;97346.33;3794510;76;43943;-22
2021/05/13 11:09:55;;;;;;;7.25;5.37;;;;;;;11.66;100.00;97350.27;3797729;78;43466;-22
2021/05/13 11:15:18;;;;;;;7.12;5.25;;;;;;;11.64;100.00;97342.88;3798182;78;43466;-20
2021/05/13 11:20:26;;;;;;;9.80;5.97;;;;;;;11.65;100.00;97340.50;3798001;78;43300;-20
2021/05/13 11:25:38;;;;;;;8.70;6.10;;;;;;;11.60;100.00;97340.23;3815304;76;44199;-22
2021/05/13 11:30:44;;;;;;;6.08;4.58;;;;;;;11.68;100.00;97345.52;3823097;77;43988;-22
2021/05/13 11:35:51;;;;;;;5.22;3.58;;;;;;;11.70;100.00;97341.26;3823074;76;44845;-22
2021/05/13 11:40:58;;;;;;;4.08;2.80;;;;;;;11.75;100.00;97344.22;3815815;77;43439;-22
2021/05/13 11:46:06;;;;;;;2.67;2.22;;;;;;;11.76;100.00;97339.64;3823624;77;43713;-22
2021/05/13 11:51:14;;;;;;;5.45;2.35;;;;;;;11.75;100.00;97339.33;3818164;77;44053;-22
2021/05/13 11:56:20;;;;;;;3.25;2.08;;;;;;;11.82;100.00;97332.09;3822989;76;44020;-22
2021/05/13 12:01:29;;;;;;;2.52;1.90;;;;;;;11.70;100.00;97339.38;3817303;76;44200;-22
2021/05/13 12:06:55;;;;;;;4.03;1.87;;;;;;;11.74;100.00;97333.60;3823385;77;74445;-23
2021/05/13 12:12:02;;;;;;;2.02;1.60;;;;;;;11.78;100.00;97322.22;3817296;76;43685;-23
2021/05/13 12:17:10;;;;;;;1.77;1.35;;;;;;;11.85;100.00;97326.31;3823922;76;43269;-23
2021/05/13 12:22:20;;;;;;;1.73;1.60;;;;;;;11.92;100.00;97319.63;3822332;77;73385;-22
2021/05/13 12:27:27;;;;;;;5.00;1.80;;;;;;;11.98;100.00;97322.40;3794796;77;42951;-23
2021/05/13 12:32:35;;;;;;;3.58;1.55;;;;;;;11.98;100.00;97318.35;3792334;76;43361;-22
2021/05/13 12:37:41;;;;;;;3.67;1.67;;;;;;;12.04;100.00;97316.73;3798440;78;43578;-23
2021/05/13 12:42:50;;;;;;;3.05;1.90;;;;;;;12.21;100.00;97316.42;3796325;76;43699;-24
2021/05/13 12:48:01;;;;;;;3.30;1.80;;;;;;;12.13;100.00;97310.13;3798582;77;43520;-24
2021/05/13 12:53:14;;;;;;;2.98;1.95;;;;;;;12.30;100.00;97313.34;3775696;78;44057;-22
2021/05/13 12:58:21;;;;;;;2.77;1.52;;;;;;;12.38;100.00;97311.52;3793782;78;43844;-22
2021/05/13 13:03:33;;;;;;;2.72;1.55;;;;;;;12.37;100.00;97313.91;3791830;76;44066;-22
2021/05/13 13:08:44;;;;;;;3.52;1.87;;;;;;;12.21;100.00;97317.23;3794887;77;44061;-22
2021/05/13 13:13:50;;;;;;;2.98;1.80;;;;;;;12.30;100.00;97320.62;3795030;76;43705;-23
2021/05/13 13:19:06;;;;;;;1.70;1.60;;;;;;;12.21;100.00;97316.42;3797741;78;43086;-23
2021/05/13 13:24:20;;;;;;;2.42;1.70;;;;;;;12.11;100.00;97312.72;3796189;77;44023;-23
2021/05/13 13:29:28;;;;;;;4.92;2.75;;;;;;;12.02;100.00;97310.69;3798740;76;44060;-22
2021/05/13 13:34:38;;;;;;;3.02;1.85;;;;;;;11.93;100.00;97308.65;3792436;76;73578;-22
2021/05/13 13:39:43;;;;;;;3.95;1.80;;;;;;;11.84;100.00;97307.95;3798317;78;44375;-23
2021/05/13 13:44:49;;;;;;;3.40;2.22;;;;;;;11.78;100.00;97301.16;3793803;76;42495;-23
2021/05/13 13:49:55;;;;;;;8.43;2.52;;;;;;;11.80;100.00;97300.45;3798225;78;44496;-23
2021/05/13 13:55:01;;;;;;;4.50;2.60;;;;;;;11.77;100.00;97301.66;3793681;76;44082;-23
2021/05/13 14:00:09;;;;;;;4.03;2.70;;;;;;;11.74;100.00;97304.78;3798636;78;43706;-23
2021/05/13 14:05:16;;;;;;;2.87;2.02;;;;;;;11.80;100.00;97293.71;3792140;76;44070;-22
2021/05/13 14:10:25;;;;;;;3.42;2.45;;;;;;;11.63;100.00;97293.17;3798033;76;44109;-22
2021/05/13 14:15:31;;;;;;;3.80;2.60;;;;;;;11.67;100.00;97290.38;3794508;78;43397;-22
2021/05/13 14:20:37;;;;;;;3.47;2.47;;;;;;;11.72;100.00;97284.72;3795734;76;44090;-24
2021/05/13 14:25:43;;;;;;;4.40;2.65;;;;;;;11.72;100.00;97278.50;3790717;76;44386;-22
2021/05/13 14:30:49;;;;;;;6.05;3.12;;;;;;;11.86;100.00;97279.41;3792374;78;43385;-23
2021/05/13 14:35:57;;;;;;;5.28;3.25;;;;;;;11.96;100.00;97277.19;3797647;77;44167;-22
2021/05/13 14:41:03;;;;;;;4.95;3.55;;;;;;;12.01;100.00;97281.52;3793011;76;44324;-23
2021/05/13 14:46:09;;;;;;;6.12;3.80;;;;;;;11.99;100.00;97274.13;3798045;78;44041;-23
2021/05/13 14:51:16;;;;;;;4.35;3.20;;;;;;;11.95;100.00;97276.88;3795849;76;43358;-23
2021/05/13 14:56:22;;;;;;;7.53;3.17;;;;;;;11.97;100.00;97278.05;3799107;76;44198;-23
2021/05/13 15:01:31;;;;;;;4.97;3.02;;;;;;;11.97;100.00;97270.77;3795108;78;44102;-23
2021/05/13 15:06:37;;;;;;;5.08;3.58;;;;;;;11.97;100.00;97268.59;3798338;78;43690;-24
2021/05/13 15:11:43;;;;;;;5.70;3.75;;;;;;;12.02;100.00;97279.64;3794652;76;43478;-23
2021/05/13 15:16:50;;;;;;;5.35;3.67;;;;;;;11.98;100.00;97279.21;3798572;78;43425;-23
2021/05/13 15:21:57;;;;;;;5.58;4.20;;;;;;;11.95;100.00;97277.41;3798153;76;43375;-24
2021/05/13 15:27:02;;;;;;;3.02;2.10;;;;;;;11.89;100.00;97291.17;3797654;76;73182;-23
2021/05/13 15:32:09;;;;;;;4.37;1.90;;;;;;;11.67;100.00;97288.54;3794523;78;44748;-23
2021/05/13 15:37:16;;;;;;;3.20;1.70;;;;;;;11.63;100.00;97285.08;3797868;78;43382;-23
2021/05/13 15:42:23;;;;;;;4.42;2.27;;;;;;;11.59;100.00;97283.80;3777526;76;43997;-23
2021/05/13 15:47:30;;;;;;;6.20;3.62;;;;;;;11.63;100.00;97281.03;3778648;76;43480;-23
2021/05/13 15:52:37;;;;;;;4.20;3.65;;;;;;;11.62;100.00;97280.72;3765295;78;43985;-23
2021/05/13 15:57:45;;;;;;;5.53;3.52;;;;;;;11.60;100.00;97278.19;3779515;76;43985;-23
2021/05/13 16:02:53;;;;;;;4.65;4.00;;;;;;;11.65;100.00;97276.25;3781560;78;44045;-23
2021/05/13 16:08:00;;;;;;;5.45;3.45;;;;;;;11.66;100.00;97282.82;3783164;78;44064;-23
2021/05/13 16:13:13;;;;;;;7.83;3.90;;;;;;;11.59;100.00;97277.88;3793505;76;43346;-21
2021/05/13 16:18:19;;;;;;;6.70;4.10;;;;;;;11.60;100.00;97274.67;3797702;76;43705;-20
2021/05/13 16:23:25;;;;;;;5.13;3.20;;;;;;;11.71;100.00;97270.09;3798026;78;43468;-22
2021/05/13 16:28:32;;;;;;;8.35;5.67;;;;;;;11.68;100.00;97282.12;3815680;76;44237;-23
2021/05/13 16:33:38;;;;;;;7.50;4.53;;;;;;;11.66;100.00;97282.82;3822682;77;43236;-23
2021/05/13 16:38:44;;;;;;;4.20;3.33;;;;;;;11.60;100.00;97282.24;3823617;77;44043;-23
2021/05/13 16:43:51;;;;;;;5.03;3.60;;;;;;;11.60;100.00;97278.72;3821699;76;43741;-24
2021/05/13 16:48:57;;;;;;;12.80;7.58;;;;;;;11.61;100.00;97279.86;3822236;76;43341;-23
2021/05/13 16:54:04;;;;;;;7.47;4.55;;;;;;;11.48;100.00;97271.66;3816616;77;43883;-23
2021/05/13 16:59:10;;;;;;;4.62;3.42;;;;;;;11.49;100.00;97282.28;3823581;76;43990;-23
2021/05/13 17:04:19;;;;;;;5.10;3.37;;;;;;;11.41;100.00;97280.55;3824738;76;43388;-23
2021/05/13 17:09:26;;;;;;;5.37;3.50;;;;;;;11.38;100.00;97280.94;3822182;77;43370;-23
2021/05/13 17:14:33;;;;;;;5.40;3.60;;;;;;;11.41;100.00;97277.00;3821220;76;44093;-23
2021/05/13 17:19:39;;;;;;;4.17;3.50;;;;;;;11.47;100.00;97286.17;3823321;76;44217;-23
2021/05/13 17:24:45;;;;;;;3.92;3.33;;;;;;;11.41;100.00;97288.64;3822120;76;44076;-22
2021/05/13 17:29:51;;;;;;;5.80;3.25;;;;;;;11.47;100.00;97290.22;3802185;76;43362;-22
2021/05/13 17:34:57;;;;;;;5.78;3.35;;;;;;;11.36;100.00;97288.91;3794681;76;43254;-22
2021/05/13 17:40:04;;;;;;;4.17;3.30;;;;;;;11.40;100.00;97293.72;3798592;76;43069;-22
2021/05/13 17:45:13;;;;;;;4.00;3.47;;;;;;;11.40;100.00;97286.97;3772719;77;44031;-22
2021/05/13 17:50:20;;;;;;;5.95;3.77;;;;;;;11.38;100.00;97287.67;3789252;78;43686;-22
2021/05/13 17:55:27;;;;;;;4.85;3.58;;;;;;;11.37;100.00;97287.87;3785878;76;43718;-22
2021/05/13 18:00:34;;;;;;;5.10;3.58;;;;;;;11.32;100.00;97287.61;3785040;77;43947;-22
2021/05/13 18:05:41;;;;;;;4.58;3.65;;;;;;;11.31;100.00;97284.59;3784859;76;43516;-23
2021/05/13 18:10:48;;;;;;;4.72;3.60;;;;;;;11.24;100.00;97278.65;3782354;76;43687;-22
2021/05/13 18:15:56;;;;;;;4.78;4.10;;;;;;;11.18;100.00;97282.63;3792091;76;43241;-22
2021/05/13 18:21:03;;;;;;;5.65;3.60;;;;;;;11.15;100.00;97285.20;3790275;77;42992;-23
2021/05/13 18:26:10;;;;;;;4.67;3.72;;;;;;;11.18;100.00;97281.28;3797992;76;44007;-22
2021/05/13 18:31:17;;;;;;;7.37;4.08;;;;;;;11.17;100.00;97289.05;3797318;78;44008;-22
2021/05/13 18:36:24;;;;;;;5.00;3.77;;;;;;;11.05;100.00;97286.05;3798278;76;43717;-22
2021/05/13 18:41:32;;;;;;;4.60;3.57;;;;;;;11.01;100.00;97295.00;3796011;76;42954;-22
2021/05/13 18:46:38;;;;;;;4.35;3.70;;;;;;;11.01;100.00;97299.05;3797945;77;44051;-23
2021/05/13 18:51:44;;;;;;;4.78;3.90;;;;;;;10.94;100.00;97301.67;3795821;78;44250;-22
2021/05/13 18:56:52;;;;;;;7.15;4.08;;;;;;;10.93;100.00;97307.27;3776564;77;43589;-24
2021/05/13 19:01:58;;;;;;;6.47;5.35;;;;;;;10.89;100.00;97306.81;3801104;76;43615;-24
2021/05/13 19:07:06;;;;;;;5.53;4.57;;;;;;;10.79;100.00;97313.02;3793897;76;43733;-23
2021/05/13 19:12:12;;;;;;;7.67;5.53;;;;;;;10.78;100.00;97310.00;3795044;76;43681;-24
2021/05/13 19:17:20;;;;;;;6.63;4.43;;;;;;;10.72;100.00;97314.80;3797971;78;43393;-24
2021/05/13 19:22:28;;;;;;;5.58;4.22;;;;;;;10.55;100.00;97323.11;3797759;78;43034;-26
2021/05/13 19:27:36;;;;;;;5.78;4.20;;;;;;;10.52;100.00;97329.39;3797346;76;44027;-26
2021/05/13 19:38:07;;;;;;;10.30;6.50;;;;;;;10.55;100.00;97323.61;3792781;76;44762;-26
2021/05/13 19:43:14;;;;;;;11.97;8.63;;;;;;;10.51;100.00;97325.02;3792571;76;44063;-26
2021/05/13 19:48:20;;;;;;;8.85;7.03;;;;;;;10.50;100.00;97320.66;3796214;76;44445;-26
2021/05/13 19:53:27;;;;;;;8.43;6.07;;;;;;;10.47;100.00;97326.73;3793638;78;44032;-25
2021/05/13 19:58:38;;;;;;;7.35;5.55;;;;;;;10.47;100.00;97328.08;3796817;78;43766;-26
2021/05/13 20:03:57;;;;;;;7.63;5.77;;;;;;;10.48;100.00;97331.59;3793162;76;44750;-26
2021/05/13 20:09:07;;;;;;;7.95;6.03;;;;;;;10.45;100.00;97331.47;3790246;76;42937;-26
2021/05/13 20:14:13;;;;;;;6.80;5.30;;;;;;;10.44;100.00;97326.28;3791590;76;43420;-26
2021/05/13 20:19:19;;;;;;;7.50;5.47;;;;;;;10.42;100.00;97331.83;3796730;76;43485;-25
2021/05/13 20:24:28;;;;;;;8.05;6.12;;;;;;;10.40;100.00;97328.52;3796840;78;44113;-25
2021/05/13 20:29:34;;;;;;;8.98;6.10;;;;;;;10.36;100.00;97331.22;3793852;77;43645;-26
2021/05/13 20:34:41;;;;;;;6.83;5.47;;;;;;;10.25;100.00;97329.82;3793470;76;44663;-26
2021/05/13 20:39:47;;;;;;;6.87;5.45;;;;;;;10.21;100.00;97328.55;3796657;76;43398;-26
2021/05/13 20:44:52;;;;;;;8.38;5.08;;;;;;;10.14;100.00;97322.22;3790705;76;43997;-26
2021/05/13 20:50:01;;;;;;;10.23;5.25;;;;;;;10.19;100.00;97327.89;3800241;76;44121;-26
2021/05/13 21:00:32;;;;;;;6.60;4.40;;;;;;;10.14;100.00;97316.83;3797447;78;44480;-25
2021/05/13 21:05:42;;;;;;;7.57;4.83;;;;;;;10.14;100.00;97317.69;3798776;76;44213;-25
2021/05/13 21:10:53;;;;;;;7.43;4.90;;;;;;;10.12;100.00;97325.10;3795488;76;44060;-28
2021/05/13 21:20:27;;;;;;;8.13;4.83;;;;;;;10.13;100.00;97323.23;3796818;76;43796;-26
2021/05/13 21:21:24;;;;;;;10.48;5.20;;;;;;;10.10;100.00;97312.86;3797780;76;43215;-25
2021/05/13 21:26:42;;;;;;;9.33;5.63;;;;;;;9.96;100.00;97314.50;3797068;77;43277;-27
2021/05/13 21:31:48;;;;;;;6.90;5.07;;;;;;;9.94;100.00;97316.54;3813765;76;27537;-26
2021/05/13 21:36:55;;;;;;;7.00;5.55;;;;;;;9.98;100.00;97309.78;3822197;77;43356;-26
2021/05/13 21:42:02;;;;;;;7.08;6.12;;;;;;;10.00;100.00;97310.44;3818410;77;44078;-26
2021/05/13 21:47:11;;;;;;;8.65;6.15;;;;;;;10.00;100.00;97309.09;3822231;76;43429;-27
2021/05/13 21:52:18;;;;;;;7.90;5.22;;;;;;;10.00;100.00;97305.88;3818099;76;43507;-26
2021/05/13 21:57:24;;;;;;;7.17;5.93;;;;;;;9.96;100.00;97305.09;3787949;77;44869;-26
2021/05/13 22:02:31;;;;;;;6.85;5.70;;;;;;;9.95;100.00;97306.95;3819307;76;43390;-25
2021/05/13 22:07:39;;;;;;;8.58;6.08;;;;;;;9.93;100.00;97301.45;3822443;77;42922;-26
2021/05/13 22:12:45;;;;;;;7.17;6.28;;;;;;;9.94;100.00;97302.59;3818774;77;43764;-26
2021/05/13 22:17:51;;;;;;;8.70;6.53;;;;;;;9.95;100.00;97296.69;3822523;75;44034;-26
2021/05/13 22:23:00;;;;;;;10.13;6.40;;;;;;;9.94;100.00;97298.56;3821018;76;43542;-26
2021/05/13 22:28:08;;;;;;;6.95;6.10;;;;;;;9.93;100.00;97292.85;3818097;76;43437;-26
2021/05/13 22:33:14;;;;;;;8.27;6.53;;;;;;;9.90;100.00;97291.87;3821004;76;69074;-26
2021/05/13 22:38:21;;;;;;;6.72;6.03;;;;;;;9.91;100.00;97288.69;3822279;77;43069;-26
2021/05/13 22:43:27;;;;;;;8.23;6.15;;;;;;;9.89;100.00;97285.34;3822171;77;43373;-26
2021/05/13 22:48:37;;;;;;;8.40;7.08;;;;;;;9.89;100.00;97288.84;3821688;76;44045;-27
2021/05/13 22:53:47;;;;;;;12.40;7.20;;;;;;;9.85;100.00;97282.19;3819276;76;43475;-26
2021/05/13 22:58:52;;;;;;;9.70;7.57;;;;;;;9.80;100.00;97281.41;3822743;77;43517;-26
2021/05/13 23:03:58;;;;;;;8.68;7.35;;;;;;;9.83;100.00;97276.16;3825153;76;42945;-26
2021/05/13 23:09:08;;;;;;;11.78;8.80;;;;;;;9.81;100.00;97273.66;3822472;77;43689;-26
2021/05/13 23:14:27;;;;;;;12.78;9.10;;;;;;;9.79;100.00;97271.66;3819803;77;43723;-26
2021/05/13 23:19:23;;;;;;;11.03;9.07;;;;;;;9.78;100.00;97266.45;3818719;76;44073;-25
2021/05/13 23:24:29;;;;;;;10.93;8.70;;;;;;;9.77;100.00;97271.50;3820197;76;75312;-26
2021/05/13 23:29:35;;;;;;;10.90;9.10;;;;;;;9.77;100.00;97273.70;3819248;76;42699;-26
2021/05/13 23:34:41;;;;;;;14.23;9.68;;;;;;;9.75;100.00;97264.97;3800700;76;44384;-26
2021/05/13 23:39:47;;;;;;;14.33;10.08;;;;;;;9.78;100.00;97267.80;3797598;77;44069;-26
2021/05/13 23:44:54;;;;;;;13.10;9.73;;;;;;;9.72;100.00;97263.98;3794399;78;43162;-26
2021/05/13 23:50:00;;;;;;;11.05;9.23;;;;;;;9.74;100.00;97261.95;3792773;76;44368;-26
2021/05/13 23:55:07;;;;;;;12.53;8.93;;;;;;;9.75;100.00;97254.21;3793675;76;44063;-26
